sensor_id;sensor_type;location;lat;lon;timestamp;temperature;humidity
13440;DHT22;6792;57.698;11.946;2022-11-30T00:01:22;12.60;49.70
13440;DHT22;6792;57.698;11.946;2022-11-30T00:03:54;12.60;49.20
13440;DHT22;6792;57.698;11.946;2022-11-30T00:06:24;12.60;49.80
13440;DHT22;6792;57.698;11.946;2022-11-30T00:08:54;12.60;49.70
13440;DHT22;6792;57.698;11.946;2022-11-30T00:11:24;12.60;49.20
13440;DHT22;6792;57.698;11.946;2022-11-30T00:13:53;12.60;49.70
13440;DHT22;6792;57.698;11.946;2022-11-30T00:16:22;12.60;49.70
13440;DHT22;6792;57.698;11.946;2022-11-30T00:18:51;12.70;49.80
13440;DHT22;6792;57.698;11.946;2022-11-30T00:21:20;12.60;49.70
13440;DHT22;6792;57.698;11.946;2022-11-30T00:23:49;12.60;49.70
13440;DHT22;6792;57.698;11.946;2022-11-30T00:26:19;12.60;49.70
13440;DHT22;6792;57.698;11.946;2022-11-30T00:28:50;12.60;49.20
13440;DHT22;6792;57.698;11.946;2022-11-30T00:31:19;12.60;49.70
13440;DHT22;6792;57.698;11.946;2022-11-30T00:33:48;12.60;49.80
13440;DHT22;6792;57.698;11.946;2022-11-30T00:36:19;12.60;49.80
13440;DHT22;6792;57.698;11.946;2022-11-30T00:38:49;12.60;49.80
13440;DHT22;6792;57.698;11.946;2022-11-30T00:41:19;12.60;49.20
13440;DHT22;6792;57.698;11.946;2022-11-30T00:43:48;12.60;49.80
13440;DHT22;6792;57.698;11.946;2022-11-30T00:46:17;12.60;49.30
13440;DHT22;6792;57.698;11.946;2022-11-30T00:48:46;12.50;49.90
13440;DHT22;6792;57.698;11.946;2022-11-30T00:51:15;12.60;50.00
13440;DHT22;6792;57.698;11.946;2022-11-30T00:53:45;12.60;50.00
13440;DHT22;6792;57.698;11.946;2022-11-30T00:56:15;12.60;49.40
13440;DHT22;6792;57.698;11.946;2022-11-30T00:58:44;12.60;49.40
13440;DHT22;6792;57.698;11.946;2022-11-30T01:01:13;12.60;50.00
13440;DHT22;6792;57.698;11.946;2022-11-30T01:03:42;12.60;49.90
13440;DHT22;6792;57.698;11.946;2022-11-30T01:06:11;12.60;50.00
13440;DHT22;6792;57.698;11.946;2022-11-30T01:08:40;12.60;49.50
13440;DHT22;6792;57.698;11.946;2022-11-30T01:11:11;12.60;50.00
13440;DHT22;6792;57.698;11.946;2022-11-30T01:13:41;12.60;50.00
13440;DHT22;6792;57.698;11.946;2022-11-30T01:16:12;12.60;49.50
13440;DHT22;6792;57.698;11.946;2022-11-30T01:18:43;12.60;50.00
13440;DHT22;6792;57.698;11.946;2022-11-30T01:21:14;12.50;50.00
13440;DHT22;6792;57.698;11.946;2022-11-30T01:23:44;12.50;50.10
13440;DHT22;6792;57.698;11.946;2022-11-30T01:26:14;12.50;50.20
13440;DHT22;6792;57.698;11.946;2022-11-30T01:28:44;12.60;50.20
13440;DHT22;6792;57.698;11.946;2022-11-30T01:31:14;12.60;50.10
13440;DHT22;6792;57.698;11.946;2022-11-30T01:33:46;12.60;50.60
13440;DHT22;6792;57.698;11.946;2022-11-30T01:36:16;12.60;50.10
13440;DHT22;6792;57.698;11.946;2022-11-30T01:38:47;12.60;50.20
13440;DHT22;6792;57.698;11.946;2022-11-30T01:41:19;12.60;50.20
13440;DHT22;6792;57.698;11.946;2022-11-30T01:43:50;12.60;50.10
13440;DHT22;6792;57.698;11.946;2022-11-30T01:46:30;12.60;50.20
13440;DHT22;6792;57.698;11.946;2022-11-30T01:49:04;12.60;49.60
13440;DHT22;6792;57.698;11.946;2022-11-30T01:51:36;12.50;50.10
13440;DHT22;6792;57.698;11.946;2022-11-30T01:54:10;12.50;50.20
13440;DHT22;6792;57.698;11.946;2022-11-30T01:56:40;12.50;50.20
13440;DHT22;6792;57.698;11.946;2022-11-30T01:59:11;12.50;50.20
13440;DHT22;6792;57.698;11.946;2022-11-30T02:01:41;12.50;49.60
13440;DHT22;6792;57.698;11.946;2022-11-30T02:04:13;12.50;50.30
13440;DHT22;6792;57.698;11.946;2022-11-30T02:06:43;12.50;50.20
13440;DHT22;6792;57.698;11.946;2022-11-30T02:09:15;12.40;49.70
13440;DHT22;6792;57.698;11.946;2022-11-30T02:11:44;12.50;50.30
13440;DHT22;6792;57.698;11.946;2022-11-30T02:14:24;12.50;50.30
13440;DHT22;6792;57.698;11.946;2022-11-30T02:16:58;12.50;49.70
13440;DHT22;6792;57.698;11.946;2022-11-30T02:19:47;12.50;49.60
13440;DHT22;6792;57.698;11.946;2022-11-30T02:22:23;12.50;49.60
13440;DHT22;6792;57.698;11.946;2022-11-30T02:25:00;12.50;50.30
13440;DHT22;6792;57.698;11.946;2022-11-30T02:27:38;12.50;50.20
13440;DHT22;6792;57.698;11.946;2022-11-30T02:30:09;12.50;49.60
13440;DHT22;6792;57.698;11.946;2022-11-30T02:32:42;12.50;50.10
13440;DHT22;6792;57.698;11.946;2022-11-30T02:35:13;12.50;50.80
13440;DHT22;6792;57.698;11.946;2022-11-30T02:37:44;12.50;50.80
13440;DHT22;6792;57.698;11.946;2022-11-30T02:40:16;12.50;50.20
13440;DHT22;6792;57.698;11.946;2022-11-30T02:42:45;12.50;50.10
13440;DHT22;6792;57.698;11.946;2022-11-30T02:45:15;12.60;50.10
13440;DHT22;6792;57.698;11.946;2022-11-30T02:47:47;12.50;50.00
13440;DHT22;6792;57.698;11.946;2022-11-30T02:50:19;12.60;50.00
13440;DHT22;6792;57.698;11.946;2022-11-30T02:52:48;12.60;50.00
13440;DHT22;6792;57.698;11.946;2022-11-30T02:55:19;12.50;49.40
13440;DHT22;6792;57.698;11.946;2022-11-30T02:57:48;12.40;49.40
13440;DHT22;6792;57.698;11.946;2022-11-30T03:00:19;12.40;50.00
13440;DHT22;6792;57.698;11.946;2022-11-30T03:02:47;12.40;50.00
13440;DHT22;6792;57.698;11.946;2022-11-30T03:05:17;12.40;50.00
13440;DHT22;6792;57.698;11.946;2022-11-30T03:07:45;12.40;50.00
13440;DHT22;6792;57.698;11.946;2022-11-30T03:10:15;12.40;50.00
13440;DHT22;6792;57.698;11.946;2022-11-30T03:12:44;12.40;50.00
13440;DHT22;6792;57.698;11.946;2022-11-30T03:15:13;12.40;50.00
13440;DHT22;6792;57.698;11.946;2022-11-30T03:17:41;12.40;50.00
13440;DHT22;6792;57.698;11.946;2022-11-30T03:20:11;12.50;50.10
13440;DHT22;6792;57.698;11.946;2022-11-30T03:22:40;12.40;49.90
13440;DHT22;6792;57.698;11.946;2022-11-30T03:25:09;12.50;50.10
13440;DHT22;6792;57.698;11.946;2022-11-30T03:27:38;12.40;50.00
13440;DHT22;6792;57.698;11.946;2022-11-30T03:30:09;12.50;50.00
13440;DHT22;6792;57.698;11.946;2022-11-30T03:32:38;12.50;50.00
13440;DHT22;6792;57.698;11.946;2022-11-30T03:35:08;12.50;50.00
13440;DHT22;6792;57.698;11.946;2022-11-30T03:37:37;12.50;50.00
13440;DHT22;6792;57.698;11.946;2022-11-30T03:40:08;12.50;50.00
13440;DHT22;6792;57.698;11.946;2022-11-30T03:42:37;12.50;49.90
13440;DHT22;6792;57.698;11.946;2022-11-30T03:45:08;12.50;50.00
13440;DHT22;6792;57.698;11.946;2022-11-30T03:47:37;12.50;49.90
13440;DHT22;6792;57.698;11.946;2022-11-30T03:50:09;12.50;49.90
13440;DHT22;6792;57.698;11.946;2022-11-30T03:52:38;12.50;49.80
13440;DHT22;6792;57.698;11.946;2022-11-30T03:55:08;12.50;49.80
13440;DHT22;6792;57.698;11.946;2022-11-30T03:57:37;12.50;49.80
13440;DHT22;6792;57.698;11.946;2022-11-30T04:00:09;12.50;49.80
13440;DHT22;6792;57.698;11.946;2022-11-30T04:02:38;12.50;49.70
13440;DHT22;6792;57.698;11.946;2022-11-30T04:05:09;12.50;49.80
13440;DHT22;6792;57.698;11.946;2022-11-30T04:07:38;12.50;49.80
13440;DHT22;6792;57.698;11.946;2022-11-30T04:10:10;12.50;49.70
13440;DHT22;6792;57.698;11.946;2022-11-30T04:12:39;12.50;49.30
13440;DHT22;6792;57.698;11.946;2022-11-30T04:15:10;12.50;49.60
13440;DHT22;6792;57.698;11.946;2022-11-30T04:17:39;12.50;49.50
13440;DHT22;6792;57.698;11.946;2022-11-30T04:20:09;12.50;49.50
13440;DHT22;6792;57.698;11.946;2022-11-30T04:22:38;12.50;49.60
13440;DHT22;6792;57.698;11.946;2022-11-30T04:25:08;12.50;49.50
13440;DHT22;6792;57.698;11.946;2022-11-30T04:27:37;12.50;49.40
13440;DHT22;6792;57.698;11.946;2022-11-30T04:30:09;12.60;49.50
13440;DHT22;6792;57.698;11.946;2022-11-30T04:32:38;12.50;48.80
13440;DHT22;6792;57.698;11.946;2022-11-30T04:35:08;12.50;49.30
13440;DHT22;6792;57.698;11.946;2022-11-30T04:37:38;12.50;49.30
13440;DHT22;6792;57.698;11.946;2022-11-30T04:40:09;12.50;49.30
13440;DHT22;6792;57.698;11.946;2022-11-30T04:42:38;12.50;49.30
13440;DHT22;6792;57.698;11.946;2022-11-30T04:45:10;12.40;48.70
13440;DHT22;6792;57.698;11.946;2022-11-30T04:47:39;12.40;48.70
13440;DHT22;6792;57.698;11.946;2022-11-30T04:50:09;12.40;48.70
13440;DHT22;6792;57.698;11.946;2022-11-30T04:52:38;12.40;48.60
13440;DHT22;6792;57.698;11.946;2022-11-30T04:55:08;12.40;49.20
13440;DHT22;6792;57.698;11.946;2022-11-30T04:57:36;12.40;49.30
13440;DHT22;6792;57.698;11.946;2022-11-30T05:00:08;12.40;49.30
13440;DHT22;6792;57.698;11.946;2022-11-30T05:02:38;12.40;49.20
13440;DHT22;6792;57.698;11.946;2022-11-30T05:05:08;12.40;49.20
13440;DHT22;6792;57.698;11.946;2022-11-30T05:07:38;12.40;49.10
13440;DHT22;6792;57.698;11.946;2022-11-30T05:10:09;12.40;49.00
13440;DHT22;6792;57.698;11.946;2022-11-30T05:12:39;12.40;49.00
13440;DHT22;6792;57.698;11.946;2022-11-30T05:15:09;12.30;49.00
13440;DHT22;6792;57.698;11.946;2022-11-30T05:17:38;12.30;49.00
13440;DHT22;6792;57.698;11.946;2022-11-30T05:20:09;12.30;49.10
13440;DHT22;6792;57.698;11.946;2022-11-30T05:22:38;12.30;49.10
13440;DHT22;6792;57.698;11.946;2022-11-30T05:25:08;12.30;49.00
13440;DHT22;6792;57.698;11.946;2022-11-30T05:27:37;12.20;49.00
13440;DHT22;6792;57.698;11.946;2022-11-30T05:30:08;12.20;49.00
13440;DHT22;6792;57.698;11.946;2022-11-30T05:32:37;12.20;49.10
13440;DHT22;6792;57.698;11.946;2022-11-30T05:35:08;12.20;49.00
13440;DHT22;6792;57.698;11.946;2022-11-30T05:37:36;12.20;49.00
13440;DHT22;6792;57.698;11.946;2022-11-30T05:40:08;12.10;49.00
13440;DHT22;6792;57.698;11.946;2022-11-30T05:42:38;12.10;49.10
13440;DHT22;6792;57.698;11.946;2022-11-30T05:45:08;12.20;49.10
13440;DHT22;6792;57.698;11.946;2022-11-30T05:47:37;12.10;49.00
13440;DHT22;6792;57.698;11.946;2022-11-30T05:50:08;12.10;49.00
13440;DHT22;6792;57.698;11.946;2022-11-30T05:52:37;12.10;49.10
13440;DHT22;6792;57.698;11.946;2022-11-30T05:55:07;12.10;49.00
13440;DHT22;6792;57.698;11.946;2022-11-30T05:57:36;12.20;49.10
13440;DHT22;6792;57.698;11.946;2022-11-30T06:00:08;12.10;48.50
13440;DHT22;6792;57.698;11.946;2022-11-30T06:02:37;12.20;49.10
13440;DHT22;6792;57.698;11.946;2022-11-30T06:05:07;12.20;48.60
13440;DHT22;6792;57.698;11.946;2022-11-30T06:07:37;12.20;49.10
13440;DHT22;6792;57.698;11.946;2022-11-30T06:10:08;12.30;49.10
13440;DHT22;6792;57.698;11.946;2022-11-30T06:12:37;12.30;48.90
13440;DHT22;6792;57.698;11.946;2022-11-30T06:15:07;12.30;48.90
13440;DHT22;6792;57.698;11.946;2022-11-30T06:17:36;12.20;48.80
13440;DHT22;6792;57.698;11.946;2022-11-30T06:20:08;12.20;48.30
13440;DHT22;6792;57.698;11.946;2022-11-30T06:22:40;12.30;49.00
13440;DHT22;6792;57.698;11.946;2022-11-30T06:25:10;12.30;48.90
13440;DHT22;6792;57.698;11.946;2022-11-30T06:27:39;12.30;48.90
13440;DHT22;6792;57.698;11.946;2022-11-30T06:30:12;12.30;48.80
13440;DHT22;6792;57.698;11.946;2022-11-30T06:32:44;12.30;49.50
13440;DHT22;6792;57.698;11.946;2022-11-30T06:35:14;12.30;48.80
13440;DHT22;6792;57.698;11.946;2022-11-30T06:37:45;12.30;48.70
13440;DHT22;6792;57.698;11.946;2022-11-30T06:40:14;12.30;48.70
13440;DHT22;6792;57.698;11.946;2022-11-30T06:42:43;12.30;48.70
13440;DHT22;6792;57.698;11.946;2022-11-30T06:45:12;12.30;48.70
13440;DHT22;6792;57.698;11.946;2022-11-30T06:47:41;12.30;48.70
13440;DHT22;6792;57.698;11.946;2022-11-30T06:50:12;12.30;48.70
13440;DHT22;6792;57.698;11.946;2022-11-30T06:52:41;12.30;48.60
13440;DHT22;6792;57.698;11.946;2022-11-30T06:55:10;12.30;48.50
13440;DHT22;6792;57.698;11.946;2022-11-30T06:57:39;12.30;48.60
13440;DHT22;6792;57.698;11.946;2022-11-30T07:00:10;12.30;48.50
13440;DHT22;6792;57.698;11.946;2022-11-30T07:02:39;12.20;48.50
13440;DHT22;6792;57.698;11.946;2022-11-30T07:05:09;12.20;48.60
13440;DHT22;6792;57.698;11.946;2022-11-30T07:07:39;12.20;48.00
13440;DHT22;6792;57.698;11.946;2022-11-30T07:10:10;12.20;48.60
13440;DHT22;6792;57.698;11.946;2022-11-30T07:12:39;12.10;48.60
13440;DHT22;6792;57.698;11.946;2022-11-30T07:15:10;12.10;48.00
13440;DHT22;6792;57.698;11.946;2022-11-30T07:17:39;12.10;48.00
13440;DHT22;6792;57.698;11.946;2022-11-30T07:20:09;12.10;48.00
13440;DHT22;6792;57.698;11.946;2022-11-30T07:22:38;12.10;47.90
13440;DHT22;6792;57.698;11.946;2022-11-30T07:25:08;12.10;48.40
13440;DHT22;6792;57.698;11.946;2022-11-30T07:27:55;12.00;47.90
13440;DHT22;6792;57.698;11.946;2022-11-30T07:30:24;12.00;48.60
13440;DHT22;6792;57.698;11.946;2022-11-30T07:32:53;12.00;48.10
13440;DHT22;6792;57.698;11.946;2022-11-30T07:35:22;12.00;48.70
13440;DHT22;6792;57.698;11.946;2022-11-30T07:37:51;12.10;48.60
13440;DHT22;6792;57.698;11.946;2022-11-30T07:40:20;12.00;48.50
13440;DHT22;6792;57.698;11.946;2022-11-30T07:42:54;12.10;48.50
13440;DHT22;6792;57.698;11.946;2022-11-30T07:45:23;12.00;47.90
13440;DHT22;6792;57.698;11.946;2022-11-30T07:47:52;12.00;47.90
13440;DHT22;6792;57.698;11.946;2022-11-30T07:50:21;12.00;49.10
13440;DHT22;6792;57.698;11.946;2022-11-30T07:52:50;12.00;48.50
13440;DHT22;6792;57.698;11.946;2022-11-30T07:55:19;12.00;48.60
13440;DHT22;6792;57.698;11.946;2022-11-30T07:57:51;12.00;48.50
13440;DHT22;6792;57.698;11.946;2022-11-30T08:00:20;12.00;48.50
13440;DHT22;6792;57.698;11.946;2022-11-30T08:02:50;12.00;48.50
13440;DHT22;6792;57.698;11.946;2022-11-30T08:05:19;12.00;48.50
13440;DHT22;6792;57.698;11.946;2022-11-30T08:07:51;12.00;48.50
13440;DHT22;6792;57.698;11.946;2022-11-30T08:10:22;12.00;48.50
13440;DHT22;6792;57.698;11.946;2022-11-30T08:12:51;12.00;48.60
13440;DHT22;6792;57.698;11.946;2022-11-30T08:15:20;12.00;48.50
13440;DHT22;6792;57.698;11.946;2022-11-30T08:17:49;11.90;48.40
13440;DHT22;6792;57.698;11.946;2022-11-30T08:20:21;11.90;48.40
13440;DHT22;6792;57.698;11.946;2022-11-30T08:22:50;11.90;48.40
13440;DHT22;6792;57.698;11.946;2022-11-30T08:25:19;11.90;48.50
13440;DHT22;6792;57.698;11.946;2022-11-30T08:27:48;11.90;48.50
13440;DHT22;6792;57.698;11.946;2022-11-30T08:30:17;11.90;48.60
13440;DHT22;6792;57.698;11.946;2022-11-30T08:32:46;11.90;48.60
13440;DHT22;6792;57.698;11.946;2022-11-30T08:35:15;11.90;48.60
13440;DHT22;6792;57.698;11.946;2022-11-30T08:37:44;11.80;48.50
13440;DHT22;6792;57.698;11.946;2022-11-30T08:40:14;11.80;48.50
13440;DHT22;6792;57.698;11.946;2022-11-30T08:42:43;11.80;48.60
13440;DHT22;6792;57.698;11.946;2022-11-30T08:45:12;11.80;48.60
13440;DHT22;6792;57.698;11.946;2022-11-30T08:47:41;11.90;48.60
13440;DHT22;6792;57.698;11.946;2022-11-30T08:50:10;11.90;48.60
13440;DHT22;6792;57.698;11.946;2022-11-30T08:52:39;11.90;48.60
13440;DHT22;6792;57.698;11.946;2022-11-30T08:55:09;11.90;48.60
13440;DHT22;6792;57.698;11.946;2022-11-30T08:57:38;11.90;48.60
13440;DHT22;6792;57.698;11.946;2022-11-30T09:00:10;11.90;48.00
13440;DHT22;6792;57.698;11.946;2022-11-30T09:02:39;11.90;48.00
13440;DHT22;6792;57.698;11.946;2022-11-30T09:05:08;11.90;48.00
13440;DHT22;6792;57.698;11.946;2022-11-30T09:07:37;11.90;48.00
13440;DHT22;6792;57.698;11.946;2022-11-30T09:10:08;11.90;48.50
13440;DHT22;6792;57.698;11.946;2022-11-30T09:12:38;11.90;48.00
13440;DHT22;6792;57.698;11.946;2022-11-30T09:15:09;11.90;48.60
13440;DHT22;6792;57.698;11.946;2022-11-30T09:17:38;11.90;48.50
13440;DHT22;6792;57.698;11.946;2022-11-30T09:20:09;11.90;48.00
13440;DHT22;6792;57.698;11.946;2022-11-30T09:22:38;11.90;48.50
13440;DHT22;6792;57.698;11.946;2022-11-30T09:25:09;11.90;48.50
13440;DHT22;6792;57.698;11.946;2022-11-30T09:27:38;12.00;48.60
13440;DHT22;6792;57.698;11.946;2022-11-30T09:30:09;12.00;48.60
13440;DHT22;6792;57.698;11.946;2022-11-30T09:32:38;12.00;48.70
13440;DHT22;6792;57.698;11.946;2022-11-30T09:35:07;12.00;48.50
13440;DHT22;6792;57.698;11.946;2022-11-30T09:37:36;12.00;48.50
13440;DHT22;6792;57.698;11.946;2022-11-30T09:40:10;12.00;48.50
13440;DHT22;6792;57.698;11.946;2022-11-30T09:42:46;12.00;48.00
13440;DHT22;6792;57.698;11.946;2022-11-30T09:45:18;12.00;48.50
13440;DHT22;6792;57.698;11.946;2022-11-30T09:53:44;12.00;48.10
13440;DHT22;6792;57.698;11.946;2022-11-30T09:56:18;12.00;48.60
13440;DHT22;6792;57.698;11.946;2022-11-30T09:58:51;12.00;48.50
13440;DHT22;6792;57.698;11.946;2022-11-30T10:01:21;12.00;48.50
13440;DHT22;6792;57.698;11.946;2022-11-30T10:03:50;12.00;48.50
13440;DHT22;6792;57.698;11.946;2022-11-30T10:06:26;12.00;48.50
13440;DHT22;6792;57.698;11.946;2022-11-30T10:09:20;12.10;48.50
13440;DHT22;6792;57.698;11.946;2022-11-30T10:11:52;12.10;48.00
13440;DHT22;6792;57.698;11.946;2022-11-30T10:17:35;12.00;48.60
13440;DHT22;6792;57.698;11.946;2022-11-30T10:23:07;12.00;48.70
13440;DHT22;6792;57.698;11.946;2022-11-30T10:25:42;12.10;48.10
13440;DHT22;6792;57.698;11.946;2022-11-30T10:28:16;12.10;48.00
13440;DHT22;6792;57.698;11.946;2022-11-30T10:30:46;12.10;47.90
13440;DHT22;6792;57.698;11.946;2022-11-30T10:33:18;12.10;47.90
13440;DHT22;6792;57.698;11.946;2022-11-30T10:38:39;12.20;47.90
13440;DHT22;6792;57.698;11.946;2022-11-30T10:41:12;12.20;47.90
13440;DHT22;6792;57.698;11.946;2022-11-30T10:43:44;12.30;48.50
13440;DHT22;6792;57.698;11.946;2022-11-30T10:46:18;12.30;48.50
13440;DHT22;6792;57.698;11.946;2022-11-30T10:48:50;12.30;47.80
13440;DHT22;6792;57.698;11.946;2022-11-30T10:51:20;12.30;48.30
13440;DHT22;6792;57.698;11.946;2022-11-30T10:53:50;12.30;48.40
13440;DHT22;6792;57.698;11.946;2022-11-30T10:56:18;12.30;48.40
13440;DHT22;6792;57.698;11.946;2022-11-30T10:58:52;12.40;48.40
13440;DHT22;6792;57.698;11.946;2022-11-30T11:01:36;12.40;48.30
13440;DHT22;6792;57.698;11.946;2022-11-30T11:04:14;12.40;47.70
13440;DHT22;6792;57.698;11.946;2022-11-30T11:06:45;12.40;47.80
13440;DHT22;6792;57.698;11.946;2022-11-30T11:09:31;12.30;48.30
13440;DHT22;6792;57.698;11.946;2022-11-30T11:12:04;12.40;47.80
13440;DHT22;6792;57.698;11.946;2022-11-30T11:14:33;12.40;48.50
13440;DHT22;6792;57.698;11.946;2022-11-30T11:17:04;12.30;47.80
13440;DHT22;6792;57.698;11.946;2022-11-30T11:19:36;12.40;48.30
13440;DHT22;6792;57.698;11.946;2022-11-30T11:22:15;12.40;48.30
13440;DHT22;6792;57.698;11.946;2022-11-30T11:24:45;12.50;48.30
13440;DHT22;6792;57.698;11.946;2022-11-30T11:27:23;12.50;48.20
13440;DHT22;6792;57.698;11.946;2022-11-30T11:30:05;12.50;48.10
13440;DHT22;6792;57.698;11.946;2022-11-30T11:32:35;12.50;48.20
13440;DHT22;6792;57.698;11.946;2022-11-30T11:35:30;12.50;48.20
13440;DHT22;6792;57.698;11.946;2022-11-30T11:38:01;12.50;48.10
13440;DHT22;6792;57.698;11.946;2022-11-30T11:40:31;12.60;47.60
13440;DHT22;6792;57.698;11.946;2022-11-30T11:43:01;12.60;48.00
13440;DHT22;6792;57.698;11.946;2022-11-30T11:45:35;12.60;47.40
13440;DHT22;6792;57.698;11.946;2022-11-30T11:48:19;12.60;48.00
13440;DHT22;6792;57.698;11.946;2022-11-30T11:50:37;12.60;48.00
13440;DHT22;6792;57.698;11.946;2022-11-30T11:53:18;12.60;48.00
13440;DHT22;6792;57.698;11.946;2022-11-30T11:55:52;12.70;48.00
13440;DHT22;6792;57.698;11.946;2022-11-30T11:58:26;12.60;48.00
13440;DHT22;6792;57.698;11.946;2022-11-30T12:00:57;12.60;48.10
13440;DHT22;6792;57.698;11.946;2022-11-30T12:03:32;12.60;48.00
13440;DHT22;6792;57.698;11.946;2022-11-30T12:06:04;12.60;48.00
13440;DHT22;6792;57.698;11.946;2022-11-30T12:08:36;12.70;47.50
13440;DHT22;6792;57.698;11.946;2022-11-30T12:11:08;12.70;48.00
13440;DHT22;6792;57.698;11.946;2022-11-30T12:13:40;12.70;47.40
13440;DHT22;6792;57.698;11.946;2022-11-30T12:16:18;12.80;47.90
13440;DHT22;6792;57.698;11.946;2022-11-30T12:18:50;12.80;47.90
13440;DHT22;6792;57.698;11.946;2022-11-30T12:21:22;12.80;47.30
13440;DHT22;6792;57.698;11.946;2022-11-30T12:24:01;12.70;47.80
13440;DHT22;6792;57.698;11.946;2022-11-30T12:26:37;12.80;47.90
13440;DHT22;6792;57.698;11.946;2022-11-30T12:29:23;12.80;47.90
13440;DHT22;6792;57.698;11.946;2022-11-30T12:32:12;12.80;47.30
13440;DHT22;6792;57.698;11.946;2022-11-30T12:35:07;12.70;47.80
13440;DHT22;6792;57.698;11.946;2022-11-30T12:37:42;12.70;47.90
13440;DHT22;6792;57.698;11.946;2022-11-30T12:40:19;12.70;47.40
13440;DHT22;6792;57.698;11.946;2022-11-30T12:42:54;12.70;47.40
13440;DHT22;6792;57.698;11.946;2022-11-30T12:45:25;12.80;48.00
13440;DHT22;6792;57.698;11.946;2022-11-30T12:47:58;12.70;47.40
13440;DHT22;6792;57.698;11.946;2022-11-30T12:50:51;12.80;47.40
13440;DHT22;6792;57.698;11.946;2022-11-30T12:53:24;12.80;48.00
13440;DHT22;6792;57.698;11.946;2022-11-30T12:55:59;12.80;48.00
13440;DHT22;6792;57.698;11.946;2022-11-30T12:58:35;12.80;48.00
13440;DHT22;6792;57.698;11.946;2022-11-30T13:01:17;12.80;47.90
13440;DHT22;6792;57.698;11.946;2022-11-30T13:03:54;12.80;47.90
13440;DHT22;6792;57.698;11.946;2022-11-30T13:06:27;12.80;47.90
13440;DHT22;6792;57.698;11.946;2022-11-30T13:09:00;12.80;47.40
13440;DHT22;6792;57.698;11.946;2022-11-30T13:11:36;12.80;47.80
13440;DHT22;6792;57.698;11.946;2022-11-30T13:14:10;12.80;47.30
13440;DHT22;6792;57.698;11.946;2022-11-30T13:16:40;12.70;47.20
13440;DHT22;6792;57.698;11.946;2022-11-30T13:19:21;12.70;47.80
13440;DHT22;6792;57.698;11.946;2022-11-30T13:21:52;12.60;47.30
13440;DHT22;6792;57.698;11.946;2022-11-30T13:24:24;12.60;47.90
13440;DHT22;6792;57.698;11.946;2022-11-30T13:26:58;12.60;47.40
13440;DHT22;6792;57.698;11.946;2022-11-30T13:32:25;12.60;47.40
13440;DHT22;6792;57.698;11.946;2022-11-30T13:34:54;12.50;48.00
13440;DHT22;6792;57.698;11.946;2022-11-30T13:37:24;12.50;48.00
13440;DHT22;6792;57.698;11.946;2022-11-30T13:39:55;12.50;47.50
13440;DHT22;6792;57.698;11.946;2022-11-30T13:42:37;12.50;48.10
13440;DHT22;6792;57.698;11.946;2022-11-30T13:45:31;12.40;48.00
13440;DHT22;6792;57.698;11.946;2022-11-30T13:48:16;12.40;48.00
13440;DHT22;6792;57.698;11.946;2022-11-30T13:50:47;12.30;48.20
13440;DHT22;6792;57.698;11.946;2022-11-30T13:53:25;12.20;47.70
13440;DHT22;6792;57.698;11.946;2022-11-30T13:56:03;12.20;47.70
13440;DHT22;6792;57.698;11.946;2022-11-30T13:58:33;12.20;47.70
13440;DHT22;6792;57.698;11.946;2022-11-30T14:01:23;12.20;47.70
13440;DHT22;6792;57.698;11.946;2022-11-30T14:07:36;12.20;47.90
13440;DHT22;6792;57.698;11.946;2022-11-30T14:10:26;12.10;48.40
13440;DHT22;6792;57.698;11.946;2022-11-30T14:13:00;12.20;48.50
13440;DHT22;6792;57.698;11.946;2022-11-30T14:15:51;12.20;48.50
13440;DHT22;6792;57.698;11.946;2022-11-30T14:18:38;12.10;48.40
13440;DHT22;6792;57.698;11.946;2022-11-30T14:21:21;12.10;48.50
13440;DHT22;6792;57.698;11.946;2022-11-30T14:23:57;12.10;48.60
13440;DHT22;6792;57.698;11.946;2022-11-30T14:26:34;12.10;48.00
13440;DHT22;6792;57.698;11.946;2022-11-30T14:29:12;12.10;48.70
13440;DHT22;6792;57.698;11.946;2022-11-30T14:31:48;12.10;48.00
13440;DHT22;6792;57.698;11.946;2022-11-30T14:34:20;12.10;48.60
13440;DHT22;6792;57.698;11.946;2022-11-30T14:36:52;12.10;48.60
13440;DHT22;6792;57.698;11.946;2022-11-30T14:39:26;12.10;48.10
13440;DHT22;6792;57.698;11.946;2022-11-30T14:41:57;12.10;48.10
13440;DHT22;6792;57.698;11.946;2022-11-30T14:44:26;12.10;48.70
13440;DHT22;6792;57.698;11.946;2022-11-30T14:46:55;12.10;48.70
13440;DHT22;6792;57.698;11.946;2022-11-30T14:49:24;12.10;48.70
13440;DHT22;6792;57.698;11.946;2022-11-30T14:51:57;12.10;48.70
13440;DHT22;6792;57.698;11.946;2022-11-30T14:54:37;12.10;48.70
13440;DHT22;6792;57.698;11.946;2022-11-30T14:57:13;12.10;48.20
13440;DHT22;6792;57.698;11.946;2022-11-30T14:59:48;12.00;48.70
13440;DHT22;6792;57.698;11.946;2022-11-30T15:02:28;12.00;48.20
13440;DHT22;6792;57.698;11.946;2022-11-30T15:04:57;12.00;48.30
13440;DHT22;6792;57.698;11.946;2022-11-30T15:07:28;12.00;48.90
13440;DHT22;6792;57.698;11.946;2022-11-30T15:12:39;11.90;48.30
13440;DHT22;6792;57.698;11.946;2022-11-30T15:15:15;11.90;48.80
13440;DHT22;6792;57.698;11.946;2022-11-30T15:17:53;11.90;49.00
13440;DHT22;6792;57.698;11.946;2022-11-30T15:20:29;11.90;49.10
13440;DHT22;6792;57.698;11.946;2022-11-30T15:22:59;11.90;49.00
13440;DHT22;6792;57.698;11.946;2022-11-30T15:25:33;11.80;49.10
13440;DHT22;6792;57.698;11.946;2022-11-30T15:28:05;11.80;49.20
13440;DHT22;6792;57.698;11.946;2022-11-30T15:30:38;11.80;49.20
13440;DHT22;6792;57.698;11.946;2022-11-30T15:33:15;11.80;49.10
13440;DHT22;6792;57.698;11.946;2022-11-30T15:35:46;11.80;49.20
13440;DHT22;6792;57.698;11.946;2022-11-30T15:38:19;11.80;49.30
13440;DHT22;6792;57.698;11.946;2022-11-30T15:40:49;11.80;49.30
13440;DHT22;6792;57.698;11.946;2022-11-30T15:43:22;11.80;49.20
13440;DHT22;6792;57.698;11.946;2022-11-30T15:45:54;11.80;49.30
13440;DHT22;6792;57.698;11.946;2022-11-30T15:48:31;11.80;49.30
13440;DHT22;6792;57.698;11.946;2022-11-30T15:51:01;11.80;48.70
13440;DHT22;6792;57.698;11.946;2022-11-30T15:53:46;11.80;49.40
13440;DHT22;6792;57.698;11.946;2022-11-30T15:56:10;11.80;49.40
13440;DHT22;6792;57.698;11.946;2022-11-30T15:58:47;11.80;48.90
13440;DHT22;6792;57.698;11.946;2022-11-30T16:01:14;11.80;48.90
13440;DHT22;6792;57.698;11.946;2022-11-30T16:04:03;11.80;50.00
13440;DHT22;6792;57.698;11.946;2022-11-30T16:06:44;11.80;48.90
13440;DHT22;6792;57.698;11.946;2022-11-30T16:09:18;11.70;49.60
13440;DHT22;6792;57.698;11.946;2022-11-30T16:11:49;11.80;49.60
13440;DHT22;6792;57.698;11.946;2022-11-30T16:14:19;11.80;49.70
13440;DHT22;6792;57.698;11.946;2022-11-30T16:16:48;11.80;49.60
13440;DHT22;6792;57.698;11.946;2022-11-30T16:19:19;11.90;49.10
13440;DHT22;6792;57.698;11.946;2022-11-30T16:21:51;11.80;49.50
13440;DHT22;6792;57.698;11.946;2022-11-30T16:24:20;11.90;49.00